Time;durP1;ratioP1;P1;durP2;ratioP2;P2;SDS_P1;SDS_P2;PMS_P1;PMS_P2;Temp;Humidity;BMP_temperature;BMP_pressure;BME280_temperature;BME280_humidity;BME280_pressure;Samples;Min_cycle;Max_cycle;Signal;HPM_P1;HPM_P2
2022/02/10 00:21:27;;;;;;;11.60;5.60;;;11.90;51.30;;;;;;5104475;28;20591;-46
2022/02/10 00:34:45;;;;;;;5.13;4.20;;;11.50;51.60;;;;;;5102036;28;20502;-46
2022/02/10 00:37:13;;;;;;;11.13;5.40;;;11.50;52.40;;;;;;5098982;28;20571;-49
2022/02/10 00:42:11;;;;;;;5.93;4.83;;;11.50;51.40;;;;;;5096517;28;20480;-49
2022/02/10 00:44:37;;;;;;;8.40;5.73;;;11.50;51.50;;;;;;5108557;28;20793;-48
2022/02/10 00:47:03;;;;;;;5.60;5.10;;;11.40;51.50;;;;;;5106227;28;20194;-50
2022/02/10 00:49:29;;;;;;;6.00;5.07;;;11.40;51.80;;;;;;5098751;28;20199;-47
2022/02/10 00:51:56;;;;;;;8.13;4.73;;;11.40;51.60;;;;;;5099089;28;20808;-47
2022/02/10 00:54:23;;;;;;;5.07;4.43;;;11.50;51.90;;;;;;5102111;28;20183;-48
2022/02/10 00:56:49;;;;;;;8.23;6.10;;;11.50;51.50;;;;;;5097171;28;20535;-46
2022/02/10 00:59:36;;;;;;;5.83;5.10;;;11.60;51.10;;;;;;5105419;28;20456;-48
2022/02/10 01:06:58;;;;;;;7.80;5.37;;;11.70;50.80;;;;;;5102078;28;21011;-48
2022/02/10 01:12:54;;;;;;;6.80;4.73;;;11.60;50.50;;;;;;5102042;28;20191;-51
2022/02/10 01:31:41;;;;;;;5.57;4.10;;;10.20;52.40;;;;;;5097905;28;20475;-49
2022/02/10 01:34:07;;;;;;;7.07;4.80;;;9.70;54.10;;;;;;5099113;28;20480;-51
2022/02/10 01:36:33;;;;;;;7.73;4.90;;;9.30;55.20;;;;;;5100670;28;20476;-49
2022/02/10 01:38:59;;;;;;;4.80;4.30;;;9.30;55.80;;;;;;5100828;28;20940;-50
2022/02/10 02:06:10;;;;;;;7.27;5.00;;;8.90;56.30;;;;;;5047583;28;20454;-50
2022/02/10 02:08:38;;;;;;;5.97;4.47;;;8.90;56.00;;;;;;5046884;28;20453;-46
2022/02/10 02:11:05;;;;;;;6.40;4.70;;;8.80;56.20;;;;;;5073075;28;20464;-46
2022/02/10 02:13:31;;;;;;;6.83;4.90;;;8.80;56.30;;;;;;5110992;28;20931;-48
2022/02/10 02:15:58;;;;;;;6.90;4.70;;;8.90;55.90;;;;;;5105297;28;21002;-50
2022/02/10 02:18:24;;;;;;;7.33;4.90;;;8.90;55.80;;;;;;5098118;28;20617;-48
2022/02/10 02:20:52;;;;;;;6.53;4.70;;;8.90;55.80;;;;;;5105315;28;20486;-50
2022/02/10 02:23:20;;;;;;;6.53;4.60;;;9.10;55.70;;;;;;5103375;28;20939;-50
2022/02/10 02:25:49;;;;;;;7.23;4.60;;;9.20;55.40;;;;;;5106722;28;20440;-50
2022/02/10 02:28:15;;;;;;;7.47;4.83;;;9.10;55.10;;;;;;5103919;28;20436;-47
2022/02/10 02:30:49;;;;;;;4.93;4.43;;;9.10;55.20;;;;;;5101769;28;20957;-46
2022/02/10 02:36:09;;;;;;;5.83;4.83;;;9.20;55.00;;;;;;5102313;28;20442;-47
2022/02/10 03:05:41;;;;;;;6.53;4.40;;;8.60;55.70;;;;;;5102921;28;20875;-46
2022/02/10 03:08:15;;;;;;;6.03;4.87;;;8.30;55.80;;;;;;5108435;28;20451;-46
2022/02/10 03:13:12;;;;;;;4.97;4.47;;;8.60;55.90;;;;;;5103373;28;20440;-45
2022/02/10 03:19:03;;;;;;;7.63;4.90;;;7.80;57.60;;;;;;5105970;28;20440;-47
2022/02/10 04:07:35;;;;;;;5.03;4.27;;;8.30;55.40;;;;;;5104068;28;20501;-46
2022/02/10 04:13:08;;;;;;;6.80;4.47;;;8.50;54.90;;;;;;5100172;28;20444;-48
2022/02/10 04:15:45;;;;;;;8.07;4.23;;;8.50;54.80;;;;;;5102849;28;20492;-47
2022/02/10 04:21:15;;;;;;;5.30;3.70;;;8.40;54.80;;;;;;5100897;28;20540;-51
2022/02/10 04:26:50;;;;;;;4.93;3.80;;;8.60;54.30;;;;;;5106397;28;20439;-47
2022/02/10 04:53:05;;;;;;;7.57;4.20;;;8.30;54.40;;;;;;5107206;28;20463;-48
2022/02/10 04:53:31;;;;;;;5.43;4.60;;;8.30;54.30;;;;;;5100290;28;20451;-46
2022/02/10 04:56:17;;;;;;;5.23;4.73;;;8.10;54.60;;;;;;5101683;28;20475;-49
2022/02/10 05:17:53;;;;;;;5.37;4.40;;;8.30;54.50;;;;;;5069626;28;20453;-47
2022/02/10 05:35:54;;;;;;;6.23;4.10;;;7.60;55.90;;;;;;5106224;28;20436;-47
2022/02/10 05:38:31;;;;;;;5.17;3.97;;;7.90;55.70;;;;;;5098202;28;20198;-45
2022/02/10 05:51:57;;;;;;;4.13;3.70;;;7.60;56.10;;;;;;5101382;28;20455;-46
2022/02/10 06:02:14;;;;;;;6.50;3.87;;;7.80;55.60;;;;;;5106722;28;20563;-48
2022/02/10 06:56:16;;;;;;;6.03;4.23;;;9.80;52.40;;;;;;5110855;28;20441;-48
2022/02/10 06:58:40;;;;;;;9.57;4.33;;;9.90;52.40;;;;;;5094523;28;20433;-47
2022/02/10 07:04:12;;;;;;;7.70;4.43;;;10.90;49.30;;;;;;5100482;28;20458;-46
2022/02/10 07:07:09;;;;;;;6.00;4.40;;;11.10;48.50;;;;;;5111256;28;20424;-47
2022/02/10 07:47:55;;;;;;;4.43;3.33;;;12.80;45.30;;;;;;5105924;28;20763;-50
2022/02/10 07:56:29;;;;;;;4.67;3.57;;;13.30;44.80;;;;;;5110888;28;20432;-47
2022/02/10 08:29:32;;;;;;;6.53;5.10;;;15.50;40.70;;;;;;5101885;28;20506;-49
2022/02/10 09:13:47;;;;;;;4.97;3.00;;;13.70;44.70;;;;;;5107515;28;20919;-49
2022/02/10 10:04:24;;;;;;;5.67;4.30;;;16.50;42.60;;;;;;5110519;28;20432;-45
2022/02/10 10:12:37;;;;;;;6.03;3.00;;;16.90;42.10;;;;;;5100205;28;20447;-48
2022/02/10 10:15:39;;;;;;;3.60;2.93;;;16.80;42.30;;;;;;5111649;28;20436;-49
2022/02/10 10:18:42;;;;;;;4.17;3.00;;;16.60;41.50;;;;;;5105665;28;20491;-48
2022/02/10 10:52:08;;;;;;;7.87;4.00;;;17.40;43.00;;;;;;5107944;28;20436;-44
2022/02/10 14:15:31;;;;;;;12.50;6.80;;;13.60;53.10;;;;;;5105286;28;20433;-45
2022/02/10 14:17:50;;;;;;;8.47;5.93;;;13.40;52.80;;;;;;5107030;28;20902;-47
2022/02/10 14:28:17;;;;;;;14.00;10.50;;;13.40;52.90;;;;;;5107928;28;20427;-45
2022/02/10 14:30:43;;;;;;;8.10;6.40;;;13.50;52.80;;;;;;5096220;28;20449;-46
2022/02/10 14:33:09;;;;;;;8.60;7.20;;;13.40;53.00;;;;;;5106426;28;20430;-45
2022/02/10 14:35:51;;;;;;;10.07;6.30;;;13.30;53.10;;;;;;5107131;28;20991;-45
2022/02/10 16:17:41;;;;;;;8.27;6.50;;;12.40;54.40;;;;;;5105801;28;20429;-45
2022/02/10 16:20:08;;;;;;;8.13;6.13;;;12.50;54.60;;;;;;5107312;28;20954;-47
2022/02/10 16:22:48;;;;;;;7.80;6.80;;;12.60;54.40;;;;;;5102094;28;20910;-45
2022/02/10 16:25:17;;;;;;;8.10;6.60;;;12.50;54.10;;;;;;5105205;28;20432;-44
2022/02/10 16:27:49;;;;;;;8.50;6.70;;;12.70;53.90;;;;;;5099944;28;20437;-45
2022/02/10 16:30:15;;;;;;;8.77;6.67;;;12.70;53.90;;;;;;5107689;28;20474;-49
2022/02/10 16:32:41;;;;;;;7.77;6.50;;;12.70;54.10;;;;;;5107716;28;20460;-46
2022/02/10 16:35:10;;;;;;;112.83;54.93;;;12.60;54.30;;;;;;5108585;28;20254;-45
2022/02/10 16:37:37;;;;;;;381.73;145.73;;;12.70;54.00;;;;;;5101870;28;20239;-45
2022/02/10 16:40:04;;;;;;;608.07;222.67;;;12.80;53.80;;;;;;5107915;28;20804;-45
2022/02/10 16:42:29;;;;;;;567.70;188.17;;;12.70;53.90;;;;;;5095149;28;20484;-45
2022/02/10 16:44:55;;;;;;;881.93;374.00;;;12.80;53.70;;;;;;5102261;28;20493;-46
2022/02/10 16:47:21;;;;;;;442.50;171.27;;;12.70;53.60;;;;;;5105211;28;20277;-46
2022/02/10 16:49:50;;;;;;;591.17;286.47;;;12.60;53.80;;;;;;5102191;28;20227;-46
2022/02/10 16:52:28;;;;;;;707.40;386.03;;;12.70;53.60;;;;;;5100509;28;20195;-45
2022/02/10 16:55:06;;;;;;;71.20;41.80;;;12.90;53.40;;;;;;5096099;28;20429;-46
2022/02/10 16:57:48;;;;;;;48.77;31.83;;;13.10;52.90;;;;;;5100644;28;21416;-45
2022/02/10 17:19:12;;;;;;;26.40;13.60;;;13.30;50.40;;;;;;5100285;28;20442;-46
2022/02/10 17:53:38;;;;;;;8.20;4.37;;;13.40;47.50;;;;;;5097907;28;20435;-48
2022/02/10 17:56:09;;;;;;;3.90;3.50;;;13.30;47.30;;;;;;5098928;28;20472;-46
2022/02/10 17:58:35;;;;;;;4.80;3.37;;;13.30;47.20;;;;;;5093716;28;20505;-49
2022/02/10 18:01:02;;;;;;;4.40;3.77;;;13.30;47.20;;;;;;5098162;28;20531;-45
2022/02/10 18:03:28;;;;;;;6.97;3.60;;;13.30;47.50;;;;;;5095629;28;20430;-47
2022/02/10 18:08:37;;;;;;;76.40;65.60;;;13.50;47.00;;;;;;5095147;28;20460;-47
2022/02/10 18:13:46;;;;;;;9.90;8.27;;;13.70;46.80;;;;;;5091470;28;20966;-46
2022/02/10 18:16:38;;;;;;;5.33;4.67;;;13.80;46.80;;;;;;5100737;28;20646;-45
2022/02/10 18:19:22;;;;;;;8.40;6.10;;;13.80;46.50;;;;;;5101899;28;20428;-46
2022/02/10 19:10:07;;;;;;;28.43;22.03;;;13.90;46.30;;;;;;5100145;28;20520;-47
2022/02/10 19:12:43;;;;;;;28.17;22.47;;;13.90;46.30;;;;;;5098519;28;20448;-47
2022/02/10 19:15:22;;;;;;;23.07;17.30;;;14.00;46.40;;;;;;5108665;28;20428;-46
2022/02/10 19:17:49;;;;;;;15.53;11.57;;;13.90;46.70;;;;;;5101439;28;20887;-45
2022/02/10 19:20:16;;;;;;;14.87;13.23;;;13.90;46.80;;;;;;5101634;28;20433;-44
2022/02/10 19:22:43;;;;;;;14.23;9.87;;;13.90;46.80;;;;;;5103840;28;20603;-46
2022/02/10 19:25:12;;;;;;;13.47;10.47;;;13.90;46.80;;;;;;5109244;28;20448;-45
2022/02/10 19:27:40;;;;;;;9.60;8.03;;;13.90;46.70;;;;;;5103865;28;20784;-45
2022/02/10 19:30:09;;;;;;;11.20;7.20;;;13.80;46.40;;;;;;5109535;28;20440;-46
2022/02/10 19:32:37;;;;;;;10.90;7.20;;;13.80;46.30;;;;;;5102958;28;20432;-45
2022/02/10 19:35:04;;;;;;;8.87;5.50;;;13.80;46.10;;;;;;5095364;28;20442;-44
2022/02/10 19:37:31;;;;;;;9.30;6.93;;;13.80;46.00;;;;;;5107123;27;20467;-49
2022/02/10 19:40:02;;;;;;;9.30;6.20;;;13.90;46.10;;;;;;5104147;28;20439;-45
2022/02/10 19:42:31;;;;;;;10.30;7.20;;;13.90;46.10;;;;;;5101433;28;20484;-45
2022/02/10 19:44:59;;;;;;;10.13;7.27;;;13.90;46.20;;;;;;5103872;28;20802;-45
2022/02/10 19:47:29;;;;;;;9.63;7.50;;;13.90;46.40;;;;;;5098367;28;20449;-45
2022/02/10 19:49:56;;;;;;;10.03;8.00;;;13.80;46.40;;;;;;5107575;28;20424;-46
2022/02/10 19:52:23;;;;;;;8.43;7.47;;;13.80;46.70;;;;;;5108269;28;20437;-45
2022/02/10 19:54:51;;;;;;;7.70;6.30;;;13.70;46.80;;;;;;5107435;28;20782;-45
2022/02/10 19:57:19;;;;;;;8.50;6.00;;;13.70;47.00;;;;;;5102528;28;20429;-47
2022/02/10 19:59:45;;;;;;;7.47;5.60;;;13.70;47.20;;;;;;5096530;28;20444;-45
2022/02/10 20:02:12;;;;;;;10.30;6.97;;;13.70;47.20;;;;;;5099050;28;20500;-45
2022/02/10 20:04:38;;;;;;;8.40;6.43;;;13.60;47.30;;;;;;5101844;28;20974;-45
2022/02/10 20:07:03;;;;;;;9.03;6.73;;;13.60;47.40;;;;;;5108113;28;20435;-44
2022/02/10 20:09:29;;;;;;;7.90;6.43;;;13.60;47.40;;;;;;5105246;28;20560;-47
2022/02/10 20:11:55;;;;;;;8.00;5.63;;;13.60;47.50;;;;;;5100159;28;20951;-46
2022/02/10 20:14:25;;;;;;;12.33;5.90;;;13.60;47.60;;;;;;5096045;28;20187;-45
2022/02/10 20:16:53;;;;;;;5.80;5.20;;;13.50;47.70;;;;;;5093020;28;20580;-45
2022/02/10 20:19:20;;;;;;;8.77;5.83;;;13.50;47.80;;;;;;5100239;28;20425;-46
2022/02/10 20:21:45;;;;;;;5.60;4.97;;;13.50;47.80;;;;;;5093503;28;21144;-46
2022/02/10 20:24:11;;;;;;;5.27;4.60;;;13.50;47.70;;;;;;5098342;28;20489;-46
2022/02/10 20:26:38;;;;;;;4.70;4.20;;;13.50;47.70;;;;;;5095620;28;20195;-45
2022/02/10 20:29:04;;;;;;;6.37;4.40;;;13.40;47.70;;;;;;5103312;28;20442;-47
2022/02/10 20:31:33;;;;;;;6.83;4.43;;;13.40;47.80;;;;;;5093823;28;20429;-46
2022/02/10 20:33:59;;;;;;;6.00;5.40;;;13.40;47.70;;;;;;5096335;28;20535;-45
2022/02/10 20:36:24;;;;;;;7.30;6.20;;;13.40;47.60;;;;;;5092523;28;20531;-45
2022/02/10 20:38:55;;;;;;;7.40;5.70;;;13.40;47.60;;;;;;5093410;28;20444;-45
2022/02/10 20:41:23;;;;;;;6.20;5.60;;;13.40;47.80;;;;;;5104988;28;20290;-45
2022/02/10 20:43:54;;;;;;;6.43;5.50;;;13.40;47.70;;;;;;5097170;28;20486;-46
2022/02/10 20:46:19;;;;;;;10.17;5.70;;;13.40;47.60;;;;;;5095123;28;20531;-45
2022/02/10 20:48:45;;;;;;;13.10;5.50;;;13.40;47.70;;;;;;5098205;28;20563;-45
2022/02/10 20:51:14;;;;;;;6.50;5.57;;;13.40;48.20;;;;;;5096597;28;20195;-49
2022/02/10 20:53:46;;;;;;;13.67;6.40;;;13.60;48.90;;;;;;5093945;28;20565;-45
2022/02/10 20:56:15;;;;;;;6.43;5.27;;;13.80;49.60;;;;;;5096430;28;20821;-46
2022/02/10 20:58:41;;;;;;;7.77;6.93;;;14.00;49.40;;;;;;5103161;28;20444;-48
2022/02/10 21:01:11;;;;;;;7.60;5.87;;;14.20;48.70;;;;;;5099694;28;20547;-51
2022/02/10 21:03:37;;;;;;;6.47;5.77;;;14.40;47.20;;;;;;5090295;28;20444;-47
2022/02/10 21:06:34;;;;;;;7.23;5.90;;;14.40;46.60;;;;;;5098689;28;21011;-46
2022/02/10 21:08:58;;;;;;;7.40;6.70;;;14.40;46.90;;;;;;5109809;28;20591;-45
2022/02/10 21:11:26;;;;;;;9.57;5.50;;;14.50;46.80;;;;;;5098770;28;20449;-46
2022/02/10 21:13:52;;;;;;;5.93;5.40;;;14.50;46.60;;;;;;5102058;28;20448;-45
2022/02/10 21:16:17;;;;;;;6.60;5.07;;;14.60;47.00;;;;;;5106330;28;20923;-46
2022/02/10 21:18:44;;;;;;;5.33;4.80;;;14.70;46.30;;;;;;5102999;28;20191;-49
2022/02/10 21:21:15;;;;;;;7.07;5.30;;;14.70;45.50;;;;;;5099682;27;20241;-46
2022/02/10 21:26:11;;;;;;;5.60;4.90;;;14.60;46.10;;;;;;5097693;28;21253;-46
2022/02/10 21:28:40;;;;;;;6.37;5.87;;;14.60;45.90;;;;;;5100309;28;20436;-49
2022/02/10 21:31:07;;;;;;;6.07;5.50;;;14.60;45.70;;;;;;5097404;28;20458;-47
2022/02/10 21:33:51;;;;;;;6.20;5.50;;;14.60;45.70;;;;;;5097192;28;20437;-47
2022/02/10 21:39:18;;;;;;;8.10;7.30;;;14.50;46.40;;;;;;5099561;28;20463;-45
2022/02/10 21:53:22;;;;;;;12.37;9.23;;;14.70;46.40;;;;;;5104681;28;20451;-46
2022/02/10 22:21:03;;;;;;;13.43;9.33;;;14.90;46.20;;;;;;5105201;28;20487;-50
2022/02/10 22:23:31;;;;;;;10.03;8.53;;;14.90;46.40;;;;;;5099890;28;20935;-46
2022/02/10 22:26:01;;;;;;;9.13;7.60;;;15.00;46.60;;;;;;5100761;28;21658;-46
2022/02/10 22:28:41;;;;;;;11.00;8.07;;;15.10;46.30;;;;;;5101366;28;20436;-46
2022/02/10 22:33:47;;;;;;;8.20;6.97;;;15.20;45.80;;;;;;5106616;28;20516;-48
2022/02/10 22:36:15;;;;;;;11.47;8.27;;;15.20;45.70;;;;;;5103773;28;20512;-46
2022/02/10 22:38:41;;;;;;;14.77;11.87;;;15.20;45.80;;;;;;5101967;28;20452;-48
2022/02/10 22:41:11;;;;;;;10.87;8.80;;;15.10;45.90;;;;;;5102447;28;20436;-47
2022/02/10 22:43:41;;;;;;;13.73;10.00;;;15.10;46.00;;;;;;5100585;28;20187;-47
2022/02/10 22:46:08;;;;;;;13.10;11.83;;;15.10;46.10;;;;;;5102885;28;20442;-48
2022/02/10 22:48:34;;;;;;;12.00;10.03;;;15.10;46.30;;;;;;5101779;28;20447;-46
2022/02/10 22:51:00;;;;;;;9.93;8.90;;;15.10;46.20;;;;;;5106414;28;20440;-46
2022/02/10 22:53:26;;;;;;;10.20;9.10;;;15.10;46.10;;;;;;5099245;28;20449;-46
2022/02/10 22:55:52;;;;;;;8.73;7.77;;;15.10;46.00;;;;;;5103316;28;20425;-47
2022/02/10 22:58:18;;;;;;;12.73;10.27;;;15.20;46.10;;;;;;5109302;28;20491;-45
2022/02/10 23:00:47;;;;;;;16.53;13.10;;;15.20;46.00;;;;;;5103063;28;20196;-46
2022/02/10 23:03:25;;;;;;;10.17;7.80;;;15.20;45.90;;;;;;5102415;28;20226;-48
2022/02/10 23:05:52;;;;;;;10.50;9.30;;;15.10;45.80;;;;;;5113811;28;20428;-46
2022/02/10 23:08:19;;;;;;;9.60;8.70;;;15.10;46.80;;;;;;5099518;28;20436;-46
2022/02/10 23:13:12;;;;;;;12.47;8.50;;;15.20;46.50;;;;;;5099712;27;20469;-46
2022/02/10 23:15:38;;;;;;;11.97;9.20;;;15.30;46.70;;;;;;5098844;28;20425;-49
2022/02/10 23:18:09;;;;;;;9.90;8.47;;;15.30;46.80;;;;;;5107140;28;20538;-45
2022/02/10 23:20:36;;;;;;;10.03;7.73;;;15.40;46.40;;;;;;5111248;28;21296;-46
2022/02/10 23:23:05;;;;;;;12.20;7.57;;;15.40;46.20;;;;;;5101712;28;20822;-45
2022/02/10 23:25:32;;;;;;;7.87;7.13;;;15.30;46.30;;;;;;5101120;28;20485;-47
2022/02/10 23:27:59;;;;;;;8.80;6.83;;;15.30;46.30;;;;;;5100752;28;20579;-46
2022/02/10 23:30:25;;;;;;;8.73;7.47;;;15.20;46.10;;;;;;5105116;28;20947;-47
2022/02/10 23:32:54;;;;;;;11.77;7.53;;;15.30;46.40;;;;;;5103894;28;20475;-49
2022/02/10 23:38:13;;;;;;;11.33;9.27;;;15.30;46.40;;;;;;5077309;28;20440;-46
2022/02/10 23:41:04;;;;;;;10.17;7.90;;;15.30;46.30;;;;;;5104676;28;20513;-46
2022/02/10 23:43:25;;;;;;;9.63;7.83;;;15.30;46.50;;;;;;5100049;28;20867;-49
2022/02/10 23:45:50;;;;;;;11.80;8.00;;;15.20;46.40;;;;;;5101728;28;20439;-45
2022/02/10 23:48:16;;;;;;;10.10;8.23;;;15.20;46.40;;;;;;5099151;28;20307;-48
2022/02/10 23:50:42;;;;;;;10.13;8.63;;;15.20;46.40;;;;;;5096037;28;20198;-46
2022/02/10 23:53:08;;;;;;;10.33;8.63;;;15.00;46.60;;;;;;5110444;28;20191;-45
2022/02/10 23:55:37;;;;;;;10.47;8.70;;;14.80;47.00;;;;;;5102722;28;20190;-45
